createdAt,value
2024-04-30T00:01:48.363Z,15.50
2024-04-30T00:04:15.987Z,15.50
2024-04-30T00:06:43.444Z,15.50
2024-04-30T00:09:10.994Z,15.40
2024-04-30T00:11:43.522Z,15.40
2024-04-30T00:14:11.354Z,15.30
2024-04-30T00:16:42.869Z,15.40
2024-04-30T00:19:10.995Z,15.30
2024-04-30T00:21:45.699Z,15.30
2024-04-30T00:24:13.315Z,15.30
2024-04-30T00:26:40.810Z,15.30
2024-04-30T00:29:08.363Z,15.20
2024-04-30T00:31:35.989Z,15.10
2024-04-30T00:34:03.515Z,15.00
2024-04-30T00:36:30.951Z,14.80
2024-04-30T00:38:59.003Z,14.80
2024-04-30T00:41:26.407Z,14.70
2024-04-30T00:43:53.887Z,14.50
2024-04-30T00:46:21.961Z,14.50
2024-04-30T00:48:49.475Z,14.30
2024-04-30T00:51:17.177Z,14.20
2024-04-30T00:53:44.637Z,14.10
2024-04-30T00:56:12.032Z,14.00
2024-04-30T00:58:39.543Z,14.00
2024-04-30T01:01:07.313Z,14.00
2024-04-30T01:03:34.789Z,14.00
2024-04-30T01:06:02.321Z,14.00
2024-04-30T01:08:29.980Z,14.10
2024-04-30T01:10:57.910Z,14.00
2024-04-30T01:13:28.651Z,14.00
2024-04-30T01:15:56.096Z,14.00
2024-04-30T01:18:23.458Z,13.90
2024-04-30T01:20:50.988Z,13.80
2024-04-30T01:23:18.413Z,13.70
2024-04-30T01:25:45.873Z,13.70
2024-04-30T01:28:13.331Z,13.60
2024-04-30T01:30:40.827Z,13.50
2024-04-30T01:33:11.087Z,13.50
2024-04-30T01:35:38.575Z,13.50
2024-04-30T01:38:05.920Z,13.50
2024-04-30T01:40:33.390Z,13.50
2024-04-30T01:43:00.858Z,13.30
2024-04-30T01:45:28.445Z,13.40
2024-04-30T01:47:55.902Z,13.50
2024-04-30T01:50:23.283Z,13.40
2024-04-30T01:52:50.590Z,13.40
2024-04-30T01:55:18.081Z,13.50
2024-04-30T01:57:48.601Z,13.50
2024-04-30T02:00:16.059Z,13.60
2024-04-30T02:02:43.448Z,13.50
2024-04-30T02:05:16.882Z,13.50
2024-04-30T02:07:48.445Z,13.30
2024-04-30T02:10:17.211Z,13.30
2024-04-30T02:12:44.598Z,13.20
2024-04-30T02:15:11.958Z,13.30
2024-04-30T02:17:39.396Z,13.30
2024-04-30T02:20:07.033Z,13.40
2024-04-30T02:22:34.445Z,13.30
2024-04-30T02:25:01.963Z,13.30
2024-04-30T02:27:29.344Z,13.20
2024-04-30T02:29:56.753Z,13.20
2024-04-30T02:32:42.888Z,13.20
2024-04-30T02:35:10.318Z,13.20
2024-04-30T02:37:37.776Z,13.10
2024-04-30T02:40:05.544Z,13.10
2024-04-30T02:42:33.220Z,13.00
2024-04-30T02:45:00.647Z,13.00
2024-04-30T02:47:28.468Z,13.00
2024-04-30T02:49:55.885Z,12.80
2024-04-30T02:52:23.318Z,12.80
2024-04-30T02:54:50.856Z,12.80
2024-04-30T02:57:18.341Z,12.80
2024-04-30T02:59:45.677Z,12.70
2024-04-30T03:02:13.037Z,12.70
2024-04-30T03:04:45.576Z,12.70
2024-04-30T03:07:13.047Z,12.60
2024-04-30T03:09:40.396Z,12.60
2024-04-30T03:12:07.934Z,12.60
2024-04-30T03:14:35.590Z,12.60
2024-04-30T03:17:03.167Z,12.60
2024-04-30T03:19:30.766Z,12.60
2024-04-30T03:21:58.181Z,12.60
2024-04-30T03:24:25.545Z,12.60
2024-04-30T03:26:52.893Z,12.50
2024-04-30T03:29:20.220Z,12.50
2024-04-30T03:31:47.686Z,12.40
2024-04-30T03:34:15.517Z,12.40
2024-04-30T03:36:43.021Z,12.30
2024-04-30T03:39:12.530Z,12.20
2024-04-30T03:41:40.082Z,12.10
2024-04-30T03:44:08.050Z,12.10
2024-04-30T03:46:35.442Z,12.00
2024-04-30T03:49:02.918Z,11.80
2024-04-30T03:51:30.481Z,11.70
2024-04-30T03:53:57.900Z,11.60
2024-04-30T03:56:25.438Z,11.60
2024-04-30T03:58:52.875Z,11.70
2024-04-30T04:01:20.255Z,11.80
2024-04-30T04:03:47.682Z,11.90
2024-04-30T04:06:17.628Z,12.00
2024-04-30T04:08:45.516Z,12.00
2024-04-30T04:11:31.851Z,12.10
2024-04-30T04:14:17.997Z,12.00
2024-04-30T04:16:45.361Z,12.00
2024-04-30T04:19:12.957Z,11.80
2024-04-30T04:21:40.507Z,11.90
2024-04-30T04:24:08.042Z,11.90
2024-04-30T04:26:35.430Z,12.00
2024-04-30T04:29:07.499Z,12.00
2024-04-30T04:31:34.928Z,12.00
2024-04-30T04:34:04.645Z,12.10
2024-04-30T04:36:32.035Z,12.20
2024-04-30T04:38:59.717Z,12.30
2024-04-30T04:41:27.141Z,12.40
2024-04-30T04:43:54.551Z,12.50
2024-04-30T04:46:22.096Z,12.60
2024-04-30T04:48:49.704Z,12.60
2024-04-30T04:51:17.052Z,12.70
2024-04-30T04:53:44.451Z,12.60
2024-04-30T04:56:11.894Z,12.60
2024-04-30T04:58:39.380Z,12.50
2024-04-30T05:01:09.640Z,12.40
2024-04-30T05:03:38.770Z,12.40
2024-04-30T05:06:06.350Z,12.50
2024-04-30T05:08:33.879Z,12.50
2024-04-30T05:13:17.923Z,12.50
2024-04-30T05:15:45.289Z,12.60
2024-04-30T05:18:12.684Z,12.60
2024-04-30T05:20:40.064Z,12.60
2024-04-30T05:23:08.870Z,12.70
2024-04-30T05:25:36.383Z,12.70
2024-04-30T05:28:07.591Z,12.80
2024-04-30T05:30:34.994Z,12.90
2024-04-30T05:33:03.884Z,13.00
2024-04-30T05:35:31.234Z,12.90
2024-04-30T05:37:58.607Z,13.00
2024-04-30T05:40:25.977Z,13.10
2024-04-30T05:42:53.355Z,13.00
2024-04-30T05:45:20.754Z,13.10
2024-04-30T05:47:48.146Z,13.20
2024-04-30T05:50:15.590Z,13.30
2024-04-30T05:52:42.988Z,13.40
2024-04-30T05:55:10.492Z,13.40
2024-04-30T05:57:38.031Z,13.40
2024-04-30T06:00:05.790Z,13.50
2024-04-30T06:02:33.162Z,13.60
2024-04-30T06:05:00.683Z,13.60
2024-04-30T06:07:28.201Z,13.60
2024-04-30T06:09:57.474Z,13.60
2024-04-30T06:12:24.894Z,13.80
2024-04-30T06:14:52.281Z,14.00
2024-04-30T06:17:21.122Z,14.10
2024-04-30T06:19:48.763Z,14.30
2024-04-30T06:22:16.203Z,14.40
2024-04-30T06:24:43.594Z,14.50
2024-04-30T06:27:11.138Z,14.60
2024-04-30T06:29:39.071Z,14.80
2024-04-30T06:32:07.322Z,15.00
2024-04-30T06:34:34.814Z,15.00
2024-04-30T06:37:03.045Z,14.80
2024-04-30T06:39:30.533Z,14.90
2024-04-30T06:41:57.868Z,14.90
2024-04-30T06:44:25.360Z,15.00
2024-04-30T06:46:52.730Z,15.10
2024-04-30T06:49:21.323Z,15.10
2024-04-30T06:51:49.601Z,15.30
2024-04-30T06:54:17.028Z,15.30
2024-04-30T06:56:44.404Z,15.40
2024-04-30T06:59:11.745Z,15.50
2024-04-30T07:01:39.660Z,15.50
2024-04-30T07:04:07.208Z,15.60
2024-04-30T07:06:35.564Z,15.90
2024-04-30T07:09:02.973Z,16.00
2024-04-30T07:11:30.420Z,16.10
2024-04-30T07:13:57.840Z,16.20
2024-04-30T07:16:25.285Z,16.40
2024-04-30T07:18:52.921Z,16.50
2024-04-30T07:21:20.447Z,16.60
2024-04-30T07:23:47.780Z,16.90
2024-04-30T07:26:18.712Z,17.10
2024-04-30T07:28:46.671Z,17.30
2024-04-30T07:31:14.265Z,17.50
2024-04-30T07:33:43.263Z,17.70
2024-04-30T07:36:10.620Z,17.60
2024-04-30T07:38:38.026Z,17.70
2024-04-30T07:41:05.866Z,17.80
2024-04-30T07:43:33.353Z,17.80
2024-04-30T07:46:00.814Z,17.90
2024-04-30T07:48:28.317Z,18.00
2024-04-30T07:50:55.721Z,18.30
2024-04-30T07:53:23.148Z,18.30
2024-04-30T07:55:50.553Z,18.40
2024-04-30T07:58:17.972Z,18.40
2024-04-30T08:00:45.469Z,18.50
2024-04-30T08:03:12.965Z,18.60
2024-04-30T08:05:43.139Z,18.80
2024-04-30T08:08:13.999Z,19.00
2024-04-30T08:10:41.542Z,19.10
2024-04-30T08:13:10.182Z,19.20
2024-04-30T08:15:38.294Z,19.10
2024-04-30T08:18:05.884Z,19.40
2024-04-30T08:20:33.310Z,19.40
2024-04-30T08:23:00.720Z,19.50
2024-04-30T08:25:28.127Z,19.60
2024-04-30T08:27:56.915Z,19.60
2024-04-30T08:30:24.297Z,19.70
2024-04-30T08:32:52.155Z,20.00
2024-04-30T08:35:19.591Z,20.20
2024-04-30T08:37:51.798Z,20.30
2024-04-30T08:40:22.628Z,20.30
2024-04-30T08:42:50.902Z,20.50
2024-04-30T08:45:22.530Z,20.60
2024-04-30T08:47:52.759Z,20.90
2024-04-30T08:50:27.248Z,20.80
2024-04-30T08:52:57.377Z,20.80
2024-04-30T08:55:25.532Z,20.90
2024-04-30T08:57:52.999Z,20.70
2024-04-30T09:00:20.399Z,20.80
2024-04-30T09:02:54.262Z,20.80
2024-04-30T09:05:23.216Z,20.90
2024-04-30T09:07:50.974Z,21.10
2024-04-30T09:10:18.552Z,21.20
2024-04-30T09:12:45.947Z,21.10
2024-04-30T09:15:19.735Z,21.10
2024-04-30T09:17:47.302Z,20.70
2024-04-30T09:20:15.188Z,20.50
2024-04-30T09:22:53.004Z,20.40
2024-04-30T09:25:31.785Z,20.70
2024-04-30T09:27:59.230Z,21.10
2024-04-30T09:30:26.608Z,21.30
2024-04-30T09:32:54.236Z,21.50
2024-04-30T09:35:29.554Z,21.70
2024-04-30T09:38:01.244Z,21.60
2024-04-30T09:40:30.620Z,21.90
2024-04-30T09:42:58.159Z,21.60
2024-04-30T09:45:25.655Z,21.60
2024-04-30T09:47:54.824Z,21.80
2024-04-30T09:50:22.773Z,22.10
2024-04-30T09:52:51.468Z,22.20
2024-04-30T09:55:20.067Z,22.50
2024-04-30T09:57:50.696Z,22.70
2024-04-30T10:00:24.152Z,23.00
2024-04-30T10:02:57.104Z,23.10
2024-04-30T10:05:32.025Z,23.10
2024-04-30T10:08:01.183Z,23.30
2024-04-30T10:10:30.722Z,23.40
2024-04-30T10:13:12.065Z,23.30
2024-04-30T10:15:40.056Z,23.50
2024-04-30T10:18:09.606Z,23.40
2024-04-30T10:20:37.439Z,23.60
2024-04-30T10:23:06.410Z,23.80
2024-04-30T10:25:33.879Z,23.60
2024-04-30T10:28:08.989Z,23.80
2024-04-30T10:30:37.725Z,24.00
2024-04-30T10:33:05.852Z,24.10
2024-04-30T10:35:45.496Z,24.40
2024-04-30T10:38:13.814Z,24.60
2024-04-30T10:40:41.127Z,24.60
2024-04-30T10:43:11.002Z,24.80
2024-04-30T10:45:38.404Z,24.80
2024-04-30T10:48:10.979Z,25.10
2024-04-30T10:50:38.560Z,25.10
2024-04-30T10:53:06.578Z,25.30
2024-04-30T10:55:36.656Z,25.50
2024-04-30T10:58:13.963Z,25.50
2024-04-30T11:00:45.180Z,25.50
2024-04-30T11:03:13.288Z,25.50
2024-04-30T11:05:41.093Z,25.70
2024-04-30T11:08:08.614Z,25.60
2024-04-30T11:10:37.147Z,25.70
2024-04-30T11:13:05.381Z,25.90
2024-04-30T11:15:32.882Z,26.00
2024-04-30T11:18:00.768Z,26.10
2024-04-30T11:20:28.242Z,26.10
2024-04-30T11:22:55.613Z,26.00
2024-04-30T11:25:23.138Z,26.20
2024-04-30T11:27:50.493Z,26.40
2024-04-30T11:30:17.909Z,26.40
2024-04-30T11:32:45.331Z,26.40
2024-04-30T11:35:12.759Z,26.40
2024-04-30T11:37:41.504Z,26.60
2024-04-30T11:40:09.331Z,26.90
2024-04-30T11:42:44.090Z,27.10
2024-04-30T11:45:17.803Z,27.20
2024-04-30T11:47:45.268Z,27.30
2024-04-30T11:50:12.666Z,27.00
2024-04-30T11:52:40.936Z,26.60
2024-04-30T11:55:08.839Z,26.50
2024-04-30T11:57:37.229Z,26.70
2024-04-30T12:00:05.311Z,26.80
2024-04-30T12:02:32.804Z,27.10
2024-04-30T12:05:00.550Z,27.40
2024-04-30T12:07:28.364Z,27.50
2024-04-30T12:09:57.767Z,27.30
2024-04-30T12:12:25.139Z,26.90
2024-04-30T12:14:52.625Z,27.00
2024-04-30T12:17:20.248Z,27.20
2024-04-30T12:19:47.878Z,27.40
2024-04-30T12:22:15.319Z,27.70
2024-04-30T12:24:42.755Z,27.80
2024-04-30T12:27:10.233Z,27.80
2024-04-30T12:29:37.613Z,27.80
2024-04-30T12:32:07.588Z,28.00
2024-04-30T12:34:36.737Z,28.00
2024-04-30T12:37:05.322Z,28.20
2024-04-30T12:39:32.742Z,28.10
2024-04-30T12:42:00.143Z,28.20
2024-04-30T12:44:52.880Z,28.50
2024-04-30T12:47:20.411Z,28.70
2024-04-30T12:49:47.876Z,28.90
2024-04-30T12:52:15.370Z,29.10
2024-04-30T12:54:42.812Z,28.80
2024-04-30T12:57:10.239Z,28.80
2024-04-30T12:59:37.957Z,28.90
2024-04-30T13:02:05.450Z,28.80
2024-04-30T13:04:33.108Z,29.30
2024-04-30T13:07:00.654Z,29.60
2024-04-30T13:09:28.187Z,29.50
2024-04-30T13:11:55.584Z,29.80
2024-04-30T13:14:23.014Z,30.10
2024-04-30T13:16:50.366Z,30.80
2024-04-30T13:19:17.952Z,31.50
2024-04-30T13:21:45.384Z,31.80
2024-04-30T13:24:13.194Z,31.60
2024-04-30T13:26:40.609Z,32.00
2024-04-30T13:29:08.240Z,32.60
2024-04-30T13:31:36.966Z,33.20
2024-04-30T13:34:04.539Z,34.00
2024-04-30T13:36:31.916Z,34.70
2024-04-30T13:38:59.384Z,34.90
2024-04-30T13:41:26.773Z,35.20
2024-04-30T13:43:54.283Z,35.50
2024-04-30T13:46:21.742Z,34.60
2024-04-30T13:48:49.339Z,34.70
2024-04-30T13:51:16.866Z,35.20
2024-04-30T13:53:44.277Z,35.80
2024-04-30T13:56:14.723Z,35.70
2024-04-30T13:58:42.665Z,36.20
2024-04-30T14:01:16.992Z,36.50
2024-04-30T14:03:45.109Z,36.70
2024-04-30T14:06:16.089Z,36.80
2024-04-30T14:08:43.730Z,37.10
2024-04-30T14:11:11.128Z,37.10
2024-04-30T14:13:38.625Z,37.40
2024-04-30T14:16:06.710Z,37.90
2024-04-30T14:18:35.178Z,38.40
2024-04-30T14:21:02.971Z,38.60
2024-04-30T14:23:30.199Z,38.60
2024-04-30T14:25:58.001Z,38.10
2024-04-30T14:28:26.076Z,38.00
2024-04-30T14:30:53.694Z,38.40
2024-04-30T14:33:21.140Z,37.70
2024-04-30T14:36:07.398Z,37.90
2024-04-30T14:38:38.599Z,38.30
2024-04-30T14:41:07.797Z,38.00
2024-04-30T14:43:36.365Z,37.70
2024-04-30T14:46:03.803Z,37.40
2024-04-30T14:48:32.720Z,37.30
2024-04-30T14:51:00.711Z,36.30
2024-04-30T14:53:28.146Z,36.10
2024-04-30T14:55:55.505Z,35.60
2024-04-30T14:58:22.954Z,35.50
2024-04-30T15:00:50.403Z,34.80
2024-04-30T15:03:23.508Z,34.40
2024-04-30T15:05:53.870Z,34.10
2024-04-30T15:08:22.728Z,33.60
2024-04-30T15:10:50.313Z,33.60
2024-04-30T15:13:20.107Z,33.00
2024-04-30T15:15:48.327Z,32.70
2024-04-30T15:18:15.836Z,32.60
2024-04-30T15:20:43.296Z,33.20
2024-04-30T15:23:10.672Z,34.00
2024-04-30T15:25:38.230Z,34.60
2024-04-30T15:28:05.822Z,35.00
2024-04-30T15:30:33.170Z,35.40
2024-04-30T15:33:00.770Z,35.60
2024-04-30T15:35:28.205Z,36.30
2024-04-30T15:37:55.614Z,37.20
2024-04-30T15:40:23.275Z,37.80
2024-04-30T15:42:51.168Z,38.20
2024-04-30T15:45:18.577Z,38.60
2024-04-30T15:47:46.507Z,38.80
2024-04-30T15:50:14.096Z,38.80
2024-04-30T15:52:42.095Z,38.50
2024-04-30T15:55:09.453Z,38.30
2024-04-30T15:57:37.124Z,38.10
2024-04-30T16:00:05.383Z,37.70
2024-04-30T16:02:45.016Z,37.80
2024-04-30T16:05:13.040Z,37.50
2024-04-30T16:07:41.482Z,37.40
2024-04-30T16:10:09.181Z,37.50
2024-04-30T16:12:36.579Z,37.60
2024-04-30T16:15:04.044Z,37.80
2024-04-30T16:17:31.740Z,38.10
2024-04-30T16:19:59.409Z,38.50
2024-04-30T16:22:26.895Z,39.10
2024-04-30T16:24:54.306Z,39.80
2024-04-30T16:27:22.551Z,40.30
2024-04-30T16:29:49.893Z,40.80
2024-04-30T16:32:17.387Z,41.00
2024-04-30T16:34:44.893Z,41.20
2024-04-30T16:37:12.611Z,41.30
2024-04-30T16:39:39.941Z,41.40
2024-04-30T16:42:07.426Z,41.10
2024-04-30T16:44:41.372Z,41.00
2024-04-30T16:47:12.530Z,40.90
2024-04-30T16:49:39.944Z,40.60
2024-04-30T16:52:07.407Z,40.20
2024-04-30T16:54:34.785Z,39.40
2024-04-30T16:57:02.213Z,38.60
2024-04-30T16:59:29.576Z,38.00
2024-04-30T17:01:57.396Z,37.60
2024-04-30T17:04:25.718Z,37.30
2024-04-30T17:06:54.056Z,37.00
2024-04-30T17:09:24.294Z,36.70
2024-04-30T17:11:51.873Z,36.40
2024-04-30T17:14:19.784Z,35.80
2024-04-30T17:16:50.834Z,35.20
2024-04-30T17:19:22.526Z,34.40
2024-04-30T17:21:54.238Z,33.70
2024-04-30T17:24:26.129Z,33.10
2024-04-30T17:26:58.922Z,32.50
2024-04-30T17:29:28.114Z,32.00
2024-04-30T17:31:59.044Z,31.70
2024-04-30T17:34:29.528Z,31.40
2024-04-30T17:37:01.474Z,31.20
2024-04-30T17:39:33.059Z,31.00
2024-04-30T17:42:05.999Z,30.80
2024-04-30T17:44:39.092Z,30.60
2024-04-30T17:47:10.050Z,30.40
2024-04-30T17:49:39.331Z,30.20
2024-04-30T17:52:10.267Z,30.00
2024-04-30T17:54:41.249Z,29.80
2024-04-30T17:57:12.654Z,29.60
2024-04-30T17:59:44.689Z,29.50
2024-04-30T18:02:16.889Z,29.30
2024-04-30T18:04:49.093Z,29.10
2024-04-30T18:07:20.704Z,29.00
2024-04-30T18:09:49.675Z,28.70
2024-04-30T18:12:21.547Z,28.60
2024-04-30T18:14:50.933Z,28.40
2024-04-30T18:17:18.795Z,28.10
2024-04-30T18:19:47.489Z,28.00
2024-04-30T18:22:15.546Z,27.80
2024-04-30T18:24:43.558Z,27.60
2024-04-30T18:27:13.440Z,27.50
2024-04-30T18:29:41.655Z,27.20
2024-04-30T18:32:09.620Z,27.10
2024-04-30T18:34:37.946Z,26.90
2024-04-30T18:37:10.759Z,26.70
2024-04-30T18:39:41.026Z,26.60
2024-04-30T18:42:09.357Z,26.50
2024-04-30T18:44:37.072Z,26.30
2024-04-30T18:47:04.879Z,26.10
2024-04-30T18:49:32.552Z,25.90
2024-04-30T18:52:00.277Z,25.70
2024-04-30T18:54:28.331Z,25.60
2024-04-30T18:56:56.559Z,25.40
2024-04-30T18:59:24.262Z,25.20
2024-04-30T19:01:52.138Z,25.10
2024-04-30T19:04:20.054Z,24.90
2024-04-30T19:06:47.975Z,24.70
2024-04-30T19:09:16.098Z,24.60
2024-04-30T19:11:45.076Z,24.50
2024-04-30T19:14:13.706Z,24.40
2024-04-30T19:16:42.609Z,24.20
2024-04-30T19:19:18.843Z,24.10
2024-04-30T19:21:50.242Z,24.10
2024-04-30T19:24:21.404Z,24.10
2024-04-30T19:26:49.765Z,24.10
2024-04-30T19:29:17.254Z,24.10
2024-04-30T19:31:44.829Z,24.00
2024-04-30T19:34:14.721Z,24.10
2024-04-30T19:36:42.320Z,24.10
2024-04-30T19:39:09.863Z,24.20
2024-04-30T19:41:38.310Z,24.20
2024-04-30T19:44:05.558Z,24.20
2024-04-30T19:46:32.921Z,24.10
2024-04-30T19:49:01.300Z,24.10
2024-04-30T19:51:28.602Z,24.00
2024-04-30T19:53:56.028Z,23.90
2024-04-30T19:56:23.889Z,23.80
2024-04-30T19:58:57.849Z,23.70
2024-04-30T20:01:29.154Z,23.60
2024-04-30T20:03:58.562Z,23.50
2024-04-30T20:06:26.530Z,23.40
2024-04-30T20:08:54.040Z,23.30
2024-04-30T20:11:25.394Z,23.20
2024-04-30T20:13:54.512Z,23.10
2024-04-30T20:16:24.996Z,22.90
2024-04-30T20:18:52.790Z,22.70
2024-04-30T20:21:20.397Z,22.60
2024-04-30T20:23:47.775Z,22.50
2024-04-30T20:26:15.901Z,22.40
2024-04-30T20:28:43.988Z,22.20
2024-04-30T20:31:12.012Z,22.10
2024-04-30T20:33:41.379Z,22.00
2024-04-30T20:36:19.721Z,21.90
2024-04-30T20:38:47.586Z,21.80
2024-04-30T20:41:15.800Z,21.80
2024-04-30T20:43:43.480Z,21.70
2024-04-30T20:46:11.455Z,21.70
2024-04-30T20:48:39.644Z,21.60
2024-04-30T20:51:07.229Z,21.60
2024-04-30T20:53:35.478Z,21.50
2024-04-30T20:56:06.288Z,21.40
2024-04-30T20:58:35.007Z,21.40
2024-04-30T21:01:04.544Z,21.40
2024-04-30T21:03:32.493Z,21.50
2024-04-30T21:06:01.298Z,21.50
2024-04-30T21:08:34.438Z,21.40
2024-04-30T21:11:02.460Z,21.50
2024-04-30T21:13:30.767Z,21.40
2024-04-30T21:15:59.430Z,21.30
2024-04-30T21:18:27.492Z,21.30
2024-04-30T21:20:55.358Z,21.10
2024-04-30T21:23:25.103Z,21.10
2024-04-30T21:25:53.536Z,21.00
2024-04-30T21:28:22.646Z,21.00
2024-04-30T21:30:52.009Z,20.90
2024-04-30T21:33:20.763Z,20.80
2024-04-30T21:35:48.959Z,20.70
2024-04-30T21:38:18.239Z,20.60
2024-04-30T21:40:45.866Z,20.60
2024-04-30T21:43:13.543Z,20.60
2024-04-30T21:45:41.463Z,20.60
2024-04-30T21:48:09.941Z,20.60
2024-04-30T21:50:37.663Z,20.70
2024-04-30T21:53:06.173Z,20.80
2024-04-30T21:55:33.918Z,20.80
2024-04-30T21:58:02.343Z,20.70
2024-04-30T22:00:30.434Z,20.80
2024-04-30T22:03:03.190Z,20.80
2024-04-30T22:05:32.660Z,20.80
2024-04-30T22:08:00.697Z,20.70
2024-04-30T22:10:28.523Z,20.70
2024-04-30T22:12:56.963Z,20.70
2024-04-30T22:15:24.573Z,20.60
2024-04-30T22:17:52.054Z,20.60
2024-04-30T22:20:19.451Z,20.60
2024-04-30T22:22:46.811Z,20.60
2024-04-30T22:25:14.313Z,20.40
2024-04-30T22:27:41.742Z,20.30
2024-04-30T22:30:17.567Z,20.30
2024-04-30T22:32:48.993Z,20.20
2024-04-30T22:35:16.560Z,20.30
2024-04-30T22:37:44.047Z,20.20
2024-04-30T22:40:11.503Z,20.20
2024-04-30T22:42:39.818Z,20.10
2024-04-30T22:45:07.192Z,20.10
2024-04-30T22:47:34.776Z,20.00
2024-04-30T22:50:02.366Z,20.00
2024-04-30T22:52:29.852Z,19.90
2024-04-30T22:54:57.302Z,20.00
2024-04-30T22:57:24.870Z,20.00
2024-04-30T22:59:52.319Z,19.90
2024-04-30T23:02:19.658Z,19.70
2024-04-30T23:04:47.438Z,19.50
2024-04-30T23:07:14.831Z,19.50
2024-04-30T23:09:42.188Z,19.40
2024-04-30T23:12:09.585Z,19.30
2024-04-30T23:14:36.942Z,19.20
2024-04-30T23:17:04.492Z,19.10
2024-04-30T23:19:32.109Z,19.20
2024-04-30T23:21:59.669Z,19.10
2024-04-30T23:24:27.250Z,19.10
2024-04-30T23:26:54.820Z,19.00
2024-04-30T23:29:23.838Z,19.10
2024-04-30T23:31:52.308Z,19.00
2024-04-30T23:34:19.689Z,19.00
2024-04-30T23:36:47.180Z,19.00
2024-04-30T23:39:14.726Z,19.00
2024-04-30T23:41:42.047Z,19.00
2024-04-30T23:44:09.594Z,18.90
2024-04-30T23:46:36.964Z,19.00
2024-04-30T23:49:04.347Z,19.00
2024-04-30T23:51:31.937Z,19.00
2024-04-30T23:53:59.421Z,18.80
2024-04-30T23:56:26.776Z,18.80
2024-04-30T23:58:54.124Z,18.80
